• Join FlightAware (Why Join?)
  • Login
  • US Flag 
04:42AM EDT


 

Airport Tracker/Info


-or-


 

Live Flight TrackerFlight Track Log ✈ CMF5HF ✈ 09-Oct-2013 ✈ KBCB - KLOM

Flight Track Log - Related Links

Times and Time Zones

All times are in EDT time to prevent confusion due to time zone crossing. See the CMF5HF flight status page for this flight to view local times or setup timezone preferences in your user account.

Time Position Orientation Groundspeed Altitude Reporting Facility
EDT Latitude Longitude Course Direction KTS MPH feet Rate Location/Type
09:49AM 37.1928 -80.2303 84° East 145 167 7,600  Level Washington Center
09:50AM 37.1967 -80.1836 84° East 175 201 8,700 1,080 Climbing Washington Center
09:51AM 37.2014 -80.1186 85° East 180 207 9,800 1,260 Climbing Washington Center
09:52AM 37.2056 -80.0589 85° East 180 207 11,200 1,380 Climbing Washington Center
09:53AM 37.2100 -79.9992 85° East 174 200 12,600 1,380 Climbing Washington Center
09:54AM 37.2267 -79.9375 71° East 174 200 14,100 1,380 Climbing Washington Center
09:55AM 37.2392 -79.8833 74° East 169 194 15,400 1,260 Climbing Washington Center
09:56AM 37.2536 -79.8294 71° East 164 189 16,600 1,080 Climbing Washington Center
09:57AM 37.2681 -79.7728 72° East 164 189 17,600 840 Climbing Washington Center
09:58AM 37.2803 -79.7239 73° East 164 189 18,300 840 Climbing Washington Center
09:59AM 37.2944 -79.6725 71° East 164 189 19,300 780 Climbing Washington Center
10:00AM 37.3047 -79.6181 77° East 164 189 19,900 600 Climbing Washington Center
10:01AM 37.3214 -79.5589 70° East 164 189 20,600 540 Climbing Washington Center
10:02AM 37.3358 -79.4994 73° East 164 189 21,000 180 Climbing Washington Center
10:03AM 37.3503 -79.4375 74° East 170 196 21,000  Level Washington Center
10:04AM 37.3769 -79.3842 58° Northeast 177 204 21,000  Level Washington Center
10:05AM 37.4303 -79.3528 25° Northeast 189 217 21,000  Level Washington Center
10:06AM 37.4875 -79.3164 27° Northeast 201 231 21,000  Level Washington Center
10:07AM 37.5344 -79.2872 26° Northeast 206 237 21,000  Level Washington Center
10:08AM 37.5919 -79.2506 27° Northeast 206 237 21,000  Level Washington Center
10:09AM 37.6408 -79.2189 27° Northeast 206 237 21,000  Level Washington Center
10:10AM 37.6939 -79.1847 27° Northeast 206 237 21,000  Level Washington Center
10:11AM 37.7514 -79.1506 25° Northeast 211 243 21,000  Level Washington Center
10:12AM 37.8044 -79.1164 27° Northeast 216 249 21,000  Level Washington Center
10:13AM 37.8619 -79.0797 27° Northeast 221 254 21,000  Level Washington Center
10:14AM 37.9236 -79.0403 27° Northeast 221 254 21,000  Level Washington Center
10:15AM 37.9786 -79.0061 26° Northeast 221 254 21,000  Level Washington Center
10:16AM 38.0319 -78.9714 27° Northeast 221 254 21,000  Level Washington Center
10:17AM 38.0850 -78.9369 27° Northeast 221 254 21,000  Level Washington Center
10:18AM 38.1422 -78.9000 27° Northeast 221 254 21,000  Level Washington Center
10:19AM 38.1911 -78.8678 27° Northeast 221 254 21,000  Level Washington Center
10:20AM 38.2442 -78.8331 27° Northeast 221 254 21,000  Level Washington Center
10:21AM 38.3036 -78.7906 29° Northeast 216 249 21,000  Level Washington Center
10:22AM 38.3589 -78.7558 26° Northeast 216 249 21,000  Level Washington Center
10:23AM 38.4119 -78.7183 29° Northeast 216 249 21,000  Level Washington Center
10:24AM 38.4692 -78.6836 25° Northeast 221 254 21,000  Level Washington Center
10:25AM 38.5264 -78.6464 27° Northeast 221 254 21,000  Level Washington Center
10:26AM 38.5817 -78.6089 28° Northeast 221 254 21,000  Level Washington Center
10:27AM 38.6367 -78.5711 28° Northeast 221 254 21,000  Level Washington Center
10:28AM 38.6939 -78.5336 27° Northeast 221 254 21,000  Level Washington Center
10:29AM 38.7514 -78.4931 29° Northeast 221 254 21,000  Level Washington Center
10:30AM 38.8064 -78.4581 26° Northeast 221 254 21,000  Level Washington Center
10:31AM 38.8636 -78.4178 29° Northeast 221 254 21,000  Level Washington Center
10:32AM 38.9228 -78.3800 26° Northeast 221 254 21,000  Level Washington Center
10:33AM 38.9800 -78.3447 26° Northeast 221 254 21,000  Level Washington Center
10:34AM 39.0372 -78.3042 29° Northeast 221 254 21,000  Level Washington Center
10:35AM 39.0964 -78.2661 27° Northeast 221 254 21,000  Level Washington Center
10:36AM 39.1472 -78.2278 30° Northeast 221 254 21,000  Level Washington Center
10:37AM 39.1900 -78.1706 46° Northeast 221 254 21,100  Climbing Washington Center
10:38AM 39.2208 -78.0992 61° Northeast 220 253 21,100 -60 Level Washington Center
10:39AM 39.2556 -78.0281 58° Northeast 220 253 21,000  Descending Washington Center
10:40AM 39.2925 -77.9594 55° Northeast 230 265 21,100  Climbing Washington Center
10:41AM 39.3269 -77.8908 57° Northeast 230 265 21,000 -60 Descending Washington Center
10:42AM 39.3639 -77.8197 56° Northeast 230 265 21,000  Level Washington Center
10:43AM 39.3986 -77.7481 58° Northeast 230 265 21,000 -540 Level Washington Center
10:44AM 39.4372 -77.6742 56° Northeast 235 270 20,000 -720 Descending Washington Center
10:46AM 39.5181 -77.5183 56° Northeast 258 297 19,000 -360 Descending New York Center
10:47AM 39.5392 -77.4397 71° East 243 280 19,000  Level New York Center
10:48AM 39.5603 -77.3636 70° East 229 264 19,100  Climbing New York Center
10:49AM 39.5811 -77.2847 71° East 223 257 19,000 -60 Descending New York Center
10:50AM 39.6022 -77.2083 70° East 223 257 19,000  Level New York Center
10:51AM 39.6225 -77.1400 69° East 223 257 19,000 -360 Level New York Center
10:52AM 39.6461 -77.0506 71° East 229 264 18,300 -600 Descending New York Center
10:53AM 39.6689 -76.9744 69° East 241 277 17,800 -780 Descending New York Center
10:54AM 39.6944 -76.8822 70° East 241 277 16,800 -900 Descending New York Center
10:55AM 39.7175 -76.8031 69° East 241 277 16,000 -900 Descending New York Center
10:56AM 39.7450 -76.7083 69° East 241 277 15,000 -960 Descending New York Center
10:57AM 39.7653 -76.6369 70° East 241 277 14,100 -960 Descending New York Center
10:58AM 39.7906 -76.5472 70° East 241 277 13,100 -960 Descending New York Center
10:59AM 39.8108 -76.4758 70° East 241 277 12,200 -540 Descending New York Center
11:00AM 39.8358 -76.3861 70° East 241 277 12,100 -720 Descending New York Center
11:02AM 39.8808 -76.2272 70° East 236 272 10,100 -1,020 Descending New York Center
11:03AM 39.8989 -76.1531 72° East 236 272 9,200 -840 Descending New York Center
11:04AM 39.9217 -76.0681 71° East 236 272 8,500 -840 Descending New York Center
11:05AM 39.9417 -75.9911 71° East 231 266 7,600 -960 Descending New York Center
11:06AM 39.9639 -75.9114 70° East 226 260 6,600 -1,020 Descending New York Center
11:07AM 39.9775 -75.8392 76° East 220 253 5,600 -960 Descending New York Center
11:08AM 39.9908 -75.7697 76° East 220 253 4,700 -840 Descending New York Center
11:09AM 40.0111 -75.6872 72° East 220 253 4,000 -540 Descending New York Center
11:10AM 40.0242 -75.6231 75° East 207 238 3,700 -600 Descending New York Center
11:11AM 40.0397 -75.5483 75° East 201 231 2,800 -780 Descending New York Center
11:12AM 40.0544 -75.4894 72° East 201 231 2,200 -300 Descending New York Center
11:13AM 40.0675 -75.4253 75° East 177 204 2,200  Level New York Center
11:14AM 40.0803 -75.3692 73° East 177 204 2,200 1,380 Level New York Center
11:15AM 40.0928 -75.3103 74° East 177 204 5,000 2,760 Climbing New York Center